Time;durP1;ratioP1;P1;durP2;ratioP2;P2;SDS_P1;SDS_P2;PMS_P1;PMS_P2;Temp;Humidity;BMP_temperature;BMP_pressure;BME280_temperature;BME280_humidity;BME280_pressure;Samples;Min_cycle;Max_cycle;Signal;HPM_P1;HPM_P2
2022/07/29 03:00:20;;;;;;;;;;;27.30;32.80;;;;;;5935642;23;46400;-72
2022/07/29 03:02:49;;;;;;;;;;;27.30;32.90;;;;;;4894262;28;47214;-66
2022/07/29 03:05:16;;;;;;;;;;;27.30;32.90;;;;;;4901705;28;45337;-66
2022/07/29 03:07:42;;;;;;;;;;;27.30;32.90;;;;;;4918384;28;45272;-67
2022/07/29 03:10:09;;;;;;;;;;;27.30;32.90;;;;;;4919024;28;45193;-67
2022/07/29 03:12:35;;;;;;;;;;;27.30;33.00;;;;;;4915905;28;45891;-65
2022/07/29 03:15:01;;;;;;;;;;;27.30;33.00;;;;;;4922776;28;44611;-68
2022/07/29 03:17:28;;;;;;;;;;;27.30;33.00;;;;;;4922832;28;45346;-64
2022/07/29 03:19:54;;;;;;;;;;;27.30;33.00;;;;;;4901638;28;45426;-63
2022/07/29 03:22:20;;;;;;;;;;;27.30;33.00;;;;;;4916818;28;46527;-64
2022/07/29 03:24:46;;;;;;;;;;;27.30;33.00;;;;;;4918419;28;45502;-66
2022/07/29 03:27:13;;;;;;;;;;;27.30;33.00;;;;;;4919262;28;44676;-68
2022/07/29 03:29:39;;;;;;;;;;;27.30;33.00;;;;;;4882591;28;45483;-67
2022/07/29 03:32:05;;;;;;;;;;;27.30;32.90;;;;;;4920052;28;45195;-67
2022/07/29 03:34:31;;;;;;;;;;;27.30;32.90;;;;;;4920586;28;45106;-67
2022/07/29 03:36:58;;;;;;;;;;;27.30;32.90;;;;;;4916698;28;45394;-66
2022/07/29 03:39:25;;;;;;;;;;;27.30;33.00;;;;;;4919011;28;44895;-64
2022/07/29 03:41:52;;;;;;;;;;;27.30;33.00;;;;;;4902861;28;46348;-64
2022/07/29 03:44:18;;;;;;;;;;;27.30;33.00;;;;;;4913261;28;45231;-69
2022/07/29 03:46:44;;;;;;;;;;;27.30;33.10;;;;;;4918337;28;45263;-65
2022/07/29 03:49:11;;;;;;;;;;;27.30;33.10;;;;;;4907168;28;45585;-66
2022/07/29 03:51:37;;;;;;;;;;;27.30;33.10;;;;;;4900676;28;45690;-66
2022/07/29 03:54:03;;;;;;;;;;;27.30;33.00;;;;;;4916053;28;45290;-64
2022/07/29 03:56:29;;;;;;;;;;;27.30;33.00;;;;;;4902686;28;45111;-65
2022/07/29 03:58:56;;;;;;;;;;;27.30;33.00;;;;;;4899078;28;45276;-71
2022/07/29 04:01:22;;;;;;;;;;;27.30;33.00;;;;;;4893093;28;46376;-65
2022/07/29 04:03:48;;;;;;;;;;;27.20;33.00;;;;;;4913041;28;45222;-67
2022/07/29 04:06:14;;;;;;;;;;;27.30;33.00;;;;;;4909078;28;45453;-65
2022/07/29 04:08:40;;;;;;;;;;;27.30;33.00;;;;;;4914284;28;44917;-65
2022/07/29 04:11:06;;;;;;;;;;;27.20;33.00;;;;;;4918776;28;45236;-65
2022/07/29 04:13:32;;;;;;;;;;;27.20;32.90;;;;;;4898876;28;45491;-64
2022/07/29 04:15:59;;;;;;;;;;;27.30;33.00;;;;;;4902125;28;45672;-66
2022/07/29 04:18:25;;;;;;;;;;;27.30;33.00;;;;;;4917119;28;45490;-67
2022/07/29 04:20:51;;;;;;;;;;;27.30;33.00;;;;;;4918428;28;45904;-65
2022/07/29 04:23:17;;;;;;;;;;;27.30;32.90;;;;;;4920670;28;45495;-65
2022/07/29 04:25:44;;;;;;;;;;;27.20;33.00;;;;;;4917682;28;45432;-66
2022/07/29 04:28:10;;;;;;;;;;;27.20;32.90;;;;;;4919675;28;44706;-67
2022/07/29 04:30:36;;;;;;;;;;;27.20;33.00;;;;;;4913708;28;46091;-68
2022/07/29 04:33:03;;;;;;;;;;;27.20;33.00;;;;;;4910414;28;44766;-70
2022/07/29 04:35:30;;;;;;;;;;;27.20;33.00;;;;;;4913214;28;45592;-68
2022/07/29 04:37:56;;;;;;;;;;;27.20;33.10;;;;;;4916380;28;44897;-67
2022/07/29 04:40:22;;;;;;;;;;;27.20;33.10;;;;;;4915149;28;45907;-64
2022/07/29 04:42:48;;;;;;;;;;;27.20;33.10;;;;;;4919837;28;45187;-70
2022/07/29 04:45:14;;;;;;;;;;;27.20;33.10;;;;;;4922525;28;45201;-70
2022/07/29 04:47:41;;;;;;;;;;;27.20;33.10;;;;;;4917245;28;45443;-70
2022/07/29 04:50:08;;;;;;;;;;;27.20;33.10;;;;;;4917454;28;46978;-67
2022/07/29 04:52:37;;;;;;;;;;;27.20;33.20;;;;;;4916134;28;45321;-67
2022/07/29 04:55:03;;;;;;;;;;;27.20;33.30;;;;;;4915792;28;45628;-65
2022/07/29 04:57:30;;;;;;;;;;;27.20;33.30;;;;;;4918110;28;45245;-68
2022/07/29 04:59:56;;;;;;;;;;;27.20;33.30;;;;;;4919219;28;46890;-70
2022/07/29 05:02:22;;;;;;;;;;;27.20;33.40;;;;;;4915901;28;45293;-66
2022/07/29 05:04:48;;;;;;;;;;;27.30;33.30;;;;;;4912979;28;45129;-67
2022/07/29 05:07:15;;;;;;;;;;;27.20;33.30;;;;;;4913832;28;45395;-70
2022/07/29 05:09:41;;;;;;;;;;;27.20;33.40;;;;;;4917748;28;45226;-68
2022/07/29 05:12:07;;;;;;;;;;;27.20;33.40;;;;;;4917499;28;45573;-68
2022/07/29 05:14:33;;;;;;;;;;;27.30;33.50;;;;;;4913923;28;44926;-67
2022/07/29 05:17:00;;;;;;;;;;;27.30;33.40;;;;;;4911903;28;44754;-66
2022/07/29 05:19:26;;;;;;;;;;;27.20;33.50;;;;;;4919900;28;46014;-67
2022/07/29 05:21:52;;;;;;;;;;;27.30;33.70;;;;;;4914209;28;45489;-68
2022/07/29 05:24:19;;;;;;;;;;;27.30;33.80;;;;;;4916294;28;45559;-68
2022/07/29 05:26:45;;;;;;;;;;;27.30;33.80;;;;;;4917450;28;45021;-67
2022/07/29 05:29:11;;;;;;;;;;;27.40;33.90;;;;;;4915212;28;46536;-69
2022/07/29 05:31:37;;;;;;;;;;;27.40;33.80;;;;;;4915107;28;45581;-68
2022/07/29 05:34:04;;;;;;;;;;;27.40;33.90;;;;;;4915831;28;45132;-68
2022/07/29 05:36:30;;;;;;;;;;;27.40;33.90;;;;;;4913015;28;44837;-67
2022/07/29 05:38:56;;;;;;;;;;;27.50;34.00;;;;;;4917850;28;45920;-68
2022/07/29 05:41:22;;;;;;;;;;;28.10;33.30;;;;;;4913457;28;45259;-68
2022/07/29 05:43:48;;;;;;;;;;;28.50;32.50;;;;;;4917041;28;45488;-66
2022/07/29 05:46:15;;;;;;;;;;;28.30;32.80;;;;;;4910442;28;45161;-70
2022/07/29 05:48:41;;;;;;;;;;;28.20;32.30;;;;;;4905519;28;46216;-68
2022/07/29 05:51:07;;;;;;;;;;;28.60;31.90;;;;;;4907782;28;45218;-65
2022/07/29 05:53:33;;;;;;;;;;;29.10;31.00;;;;;;4919181;28;44971;-65
2022/07/29 05:56:02;;;;;;;;;;;29.50;30.30;;;;;;4916821;28;45558;-67
2022/07/29 05:58:28;;;;;;;;;;;29.30;30.30;;;;;;4910166;28;46809;-64
2022/07/29 06:00:58;;;;;;;;;;;28.70;31.10;;;;;;4923666;28;45279;-71
2022/07/29 06:03:25;;;;;;;;;;;28.20;32.00;;;;;;4917223;28;45423;-67
2022/07/29 06:05:51;;;;;;;;;;;28.00;32.40;;;;;;4919083;28;44875;-67
2022/07/29 06:08:17;;;;;;;;;;;27.80;32.80;;;;;;4917645;28;45562;-67
2022/07/29 06:10:45;;;;;;;;;;;27.70;33.00;;;;;;4914344;28;45657;-70
2022/07/29 06:13:11;;;;;;;;;;;27.60;33.20;;;;;;4913487;28;45018;-67
2022/07/29 06:15:37;;;;;;;;;;;27.60;33.30;;;;;;4920283;28;45456;-71
2022/07/29 06:18:07;;;;;;;;;;;27.50;33.30;;;;;;4902944;28;46055;-67
2022/07/29 06:20:33;;;;;;;;;;;27.50;33.40;;;;;;4919498;28;45388;-65
2022/07/29 06:22:59;;;;;;;;;;;27.50;33.50;;;;;;4917171;28;45523;-67
2022/07/29 06:25:26;;;;;;;;;;;27.50;33.60;;;;;;4913050;28;45518;-67
2022/07/29 06:27:52;;;;;;;;;;;27.50;33.70;;;;;;4912595;28;46189;-64
2022/07/29 06:30:18;;;;;;;;;;;27.60;33.70;;;;;;4918610;28;44682;-69
2022/07/29 06:32:45;;;;;;;;;;;27.60;33.70;;;;;;4908295;28;45437;-68
2022/07/29 06:35:11;;;;;;;;;;;27.60;33.80;;;;;;4917975;28;46293;-67
2022/07/29 06:37:37;;;;;;;;;;;27.60;33.70;;;;;;4896340;28;46052;-74
2022/07/29 06:42:48;;;;;;;;;;;27.70;33.90;;;;;;4914594;28;45248;-66
2022/07/29 06:45:15;;;;;;;;;;;27.70;33.80;;;;;;4917555;28;44916;-67
2022/07/29 06:47:42;;;;;;;;;;;27.70;33.90;;;;;;4914967;28;45240;-66
2022/07/29 06:50:11;;;;;;;;;;;27.80;34.10;;;;;;4915329;28;45209;-64
2022/07/29 06:52:38;;;;;;;;;;;27.80;34.10;;;;;;4914905;28;45242;-70
2022/07/29 06:55:04;;;;;;;;;;;27.90;34.00;;;;;;4914164;28;45027;-70
2022/07/29 06:57:30;;;;;;;;;;;28.00;34.00;;;;;;4884842;28;47137;-65
2022/07/29 06:59:56;;;;;;;;;;;28.10;34.50;;;;;;4900098;28;44725;-67
2022/07/29 07:02:23;;;;;;;;;;;28.10;33.60;;;;;;4914189;28;44936;-67
2022/07/29 07:04:49;;;;;;;;;;;28.20;33.60;;;;;;4919502;28;45254;-69
2022/07/29 07:07:15;;;;;;;;;;;28.20;33.70;;;;;;4917118;28;46921;-68
2022/07/29 07:09:41;;;;;;;;;;;28.20;33.80;;;;;;4911564;28;45863;-66
2022/07/29 07:12:07;;;;;;;;;;;28.20;34.00;;;;;;4917177;28;45208;-69
2022/07/29 07:14:34;;;;;;;;;;;28.20;34.20;;;;;;4916726;28;45461;-67
2022/07/29 07:17:00;;;;;;;;;;;28.20;34.20;;;;;;4913905;28;45944;-67
2022/07/29 07:19:26;;;;;;;;;;;28.20;34.20;;;;;;4912730;28;46748;-64
2022/07/29 07:21:53;;;;;;;;;;;28.30;34.50;;;;;;4921769;28;45253;-67
2022/07/29 07:24:19;;;;;;;;;;;28.30;34.50;;;;;;4916694;28;45485;-66
2022/07/29 07:26:45;;;;;;;;;;;28.40;34.50;;;;;;4916945;28;46144;-66
2022/07/29 07:29:12;;;;;;;;;;;28.40;34.60;;;;;;4916995;28;45022;-67
2022/07/29 07:31:38;;;;;;;;;;;28.40;34.70;;;;;;4912744;28;45500;-68
2022/07/29 07:34:05;;;;;;;;;;;28.40;34.70;;;;;;4885131;28;45249;-69
2022/07/29 07:36:31;;;;;;;;;;;28.50;34.70;;;;;;4912760;28;46035;-70
2022/07/29 07:38:57;;;;;;;;;;;28.50;35.30;;;;;;4914143;28;45494;-68
2022/07/29 07:41:23;;;;;;;;;;;28.50;34.90;;;;;;4911689;28;45185;-65
2022/07/29 07:43:49;;;;;;;;;;;28.50;34.90;;;;;;4915308;28;44881;-66
2022/07/29 07:46:15;;;;;;;;;;;28.50;34.90;;;;;;4909141;28;45425;-66
2022/07/29 07:48:42;;;;;;;;;;;28.60;35.00;;;;;;4914617;28;46915;-65
2022/07/29 07:51:08;;;;;;;;;;;28.60;35.00;;;;;;4911800;28;45314;-65
2022/07/29 07:53:34;;;;;;;;;;;28.60;35.10;;;;;;4911517;28;45413;-67
2022/07/29 07:56:01;;;;;;;;;;;28.60;35.20;;;;;;4913004;28;47208;-69
2022/07/29 07:58:27;;;;;;;;;;;28.70;35.20;;;;;;4916889;28;45682;-67
2022/07/29 08:00:53;;;;;;;;;;;28.70;35.20;;;;;;4910636;28;45000;-70
2022/07/29 08:03:19;;;;;;;;;;;28.70;35.20;;;;;;4916429;28;45386;-67
2022/07/29 08:05:47;;;;;;;;;;;28.70;35.30;;;;;;4908530;28;45478;-66
2022/07/29 08:08:13;;;;;;;;;;;28.70;35.30;;;;;;4898232;28;45258;-67
2022/07/29 08:10:51;;;;;;;;;;;28.80;35.50;;;;;;4913030;28;45511;-68
2022/07/29 08:13:18;;;;;;;;;;;28.80;35.40;;;;;;4909884;28;45548;-71
2022/07/29 08:15:45;;;;;;;;;;;28.80;35.40;;;;;;4913026;28;45576;-66
2022/07/29 08:18:12;;;;;;;;;;;28.80;35.40;;;;;;4915231;28;45887;-64
2022/07/29 08:20:38;;;;;;;;;;;28.90;35.50;;;;;;4900097;28;45301;-68
2022/07/29 08:23:10;;;;;;;;;;;28.90;35.50;;;;;;4913370;28;45275;-67
2022/07/29 08:25:38;;;;;;;;;;;28.90;35.40;;;;;;4910470;28;46891;-68
2022/07/29 08:28:04;;;;;;;;;;;29.00;36.20;;;;;;4913264;28;45233;-69
2022/07/29 08:30:29;;;;;;;;;;;29.00;35.70;;;;;;4914363;28;45604;-72
2022/07/29 08:32:55;;;;;;;;;;;29.00;35.60;;;;;;4909948;28;45839;-63
2022/07/29 08:35:21;;;;;;;;;;;29.10;35.80;;;;;;4911635;28;46284;-65
2022/07/29 08:37:46;;;;;;;;;;;29.10;35.70;;;;;;4898844;28;45447;-68
2022/07/29 08:40:12;;;;;;;;;;;29.10;35.70;;;;;;4915509;28;45745;-67
2022/07/29 08:42:37;;;;;;;;;;;29.10;35.70;;;;;;4911098;28;45320;-71
2022/07/29 08:45:04;;;;;;;;;;;29.20;35.80;;;;;;4916312;28;46404;-68
2022/07/29 08:47:29;;;;;;;;;;;29.20;35.70;;;;;;4910883;28;45429;-66
2022/07/29 08:49:54;;;;;;;;;;;29.30;35.80;;;;;;4914900;28;46003;-66
2022/07/29 08:52:20;;;;;;;;;;;29.30;35.80;;;;;;4911008;28;45320;-66
2022/07/29 08:54:45;;;;;;;;;;;29.30;35.80;;;;;;4920192;28;46167;-62
2022/07/29 08:57:14;;;;;;;;;;;29.30;35.90;;;;;;4904363;28;45232;-66
2022/07/29 08:59:40;;;;;;;;;;;29.40;35.90;;;;;;4906303;28;45273;-66
2022/07/29 09:02:05;;;;;;;;;;;29.40;35.90;;;;;;4895231;28;44779;-66
2022/07/29 09:04:31;;;;;;;;;;;29.40;36.00;;;;;;4904297;28;46177;-66
2022/07/29 09:06:57;;;;;;;;;;;29.40;35.90;;;;;;4903905;28;45362;-64
2022/07/29 09:09:22;;;;;;;;;;;29.40;35.90;;;;;;4905176;28;45411;-70
2022/07/29 09:11:48;;;;;;;;;;;29.50;35.90;;;;;;4906065;28;45261;-66
2022/07/29 09:14:14;;;;;;;;;;;29.50;35.90;;;;;;4890222;28;45432;-67
2022/07/29 09:16:53;;;;;;;;;;;29.50;36.00;;;;;;4879159;28;45605;-67
2022/07/29 09:19:19;;;;;;;;;;;29.50;35.50;;;;;;4899856;28;45380;-65
2022/07/29 09:21:57;;;;;;;;;;;29.50;35.40;;;;;;4906497;28;45425;-67
2022/07/29 09:24:23;;;;;;;;;;;29.60;35.40;;;;;;4882482;28;46157;-67
2022/07/29 09:26:48;;;;;;;;;;;29.60;35.40;;;;;;4902083;28;44896;-67
2022/07/29 09:29:17;;;;;;;;;;;29.60;35.40;;;;;;4901580;28;45787;-67
2022/07/29 09:31:44;;;;;;;;;;;29.60;35.10;;;;;;4903608;28;45483;-67
2022/07/29 09:34:10;;;;;;;;;;;29.70;35.00;;;;;;4905666;28;45248;-67
2022/07/29 09:36:46;;;;;;;;;;;29.70;35.10;;;;;;4905777;28;45200;-65
2022/07/29 09:39:11;;;;;;;;;;;29.70;35.20;;;;;;4884027;28;45058;-66
2022/07/29 09:41:44;;;;;;;;;;;29.70;35.20;;;;;;4911036;28;45853;-66
2022/07/29 09:44:09;;;;;;;;;;;29.70;35.00;;;;;;4899558;28;45618;-66
2022/07/29 09:46:35;;;;;;;;;;;29.70;35.10;;;;;;4899519;28;45455;-65
2022/07/29 09:49:08;;;;;;;;;;;29.70;35.00;;;;;;4892709;28;45639;-70
2022/07/29 09:51:34;;;;;;;;;;;29.70;34.70;;;;;;4881476;29;45067;-66
2022/07/29 09:54:03;;;;;;;;;;;29.80;34.70;;;;;;4907737;28;46182;-65
2022/07/29 09:56:41;;;;;;;;;;;29.80;34.70;;;;;;4904677;28;45440;-67
2022/07/29 09:59:07;;;;;;;;;;;29.80;34.30;;;;;;4900605;28;45327;-70
2022/07/29 10:01:32;;;;;;;;;;;29.80;34.20;;;;;;4908957;28;45740;-65
2022/07/29 10:03:57;;;;;;;;;;;29.80;34.40;;;;;;4903631;28;45986;-65
2022/07/29 10:06:23;;;;;;;;;;;29.80;34.50;;;;;;4921458;28;45263;-62
2022/07/29 10:08:49;;;;;;;;;;;29.80;34.30;;;;;;4919017;28;45194;-66
2022/07/29 10:11:15;;;;;;;;;;;29.80;33.70;;;;;;4918401;28;45270;-64
2022/07/29 10:13:41;;;;;;;;;;;29.80;33.90;;;;;;4917109;28;46001;-64
2022/07/29 10:16:07;;;;;;;;;;;29.80;34.10;;;;;;4912118;28;45435;-65
2022/07/29 10:18:32;;;;;;;;;;;29.80;33.80;;;;;;4921182;28;45262;-69
2022/07/29 10:20:58;;;;;;;;;;;29.90;33.80;;;;;;4917401;28;45294;-63
2022/07/29 10:23:23;;;;;;;;;;;29.90;34.60;;;;;;4920466;28;45842;-66
2022/07/29 10:25:49;;;;;;;;;;;29.90;34.10;;;;;;4904683;28;44635;-70
2022/07/29 10:28:14;;;;;;;;;;;29.90;33.80;;;;;;4903482;28;45193;-66
2022/07/29 10:30:40;;;;;;;;;;;29.90;33.90;;;;;;4917421;28;45292;-64
2022/07/29 10:33:29;;;;;;;;;;;29.90;33.80;;;;;;4902954;28;46164;-65
2022/07/29 10:36:03;;;;;;;;;;;29.90;33.80;;;;;;4907842;28;45427;-65
2022/07/29 10:38:31;;;;;;;;;;;30.00;33.80;;;;;;4918513;28;44736;-66
2022/07/29 10:43:47;;;;;;;;;;;30.00;34.00;;;;;;4918384;28;45945;-65
2022/07/29 10:46:13;;;;;;;;;;;30.00;34.00;;;;;;4906626;28;45259;-70
2022/07/29 10:48:57;;;;;;;;;;;30.00;34.20;;;;;;4900852;28;45290;-66
2022/07/29 10:51:23;;;;;;;;;;;30.00;34.00;;;;;;4916793;28;45390;-62
2022/07/29 10:53:49;;;;;;;;;;;30.00;33.70;;;;;;4910869;28;45318;-68
2022/07/29 10:56:28;;;;;;;;;;;30.00;33.90;;;;;;4917376;28;45202;-66
2022/07/29 10:59:12;;;;;;;;;;;30.10;33.90;;;;;;4918826;28;45631;-65
2022/07/29 11:01:37;;;;;;;;;;;30.10;33.80;;;;;;4914139;28;44802;-68
2022/07/29 11:04:04;;;;;;;;;;;30.10;33.90;;;;;;4919083;28;46160;-66
2022/07/29 11:07:05;;;;;;;;;;;30.10;33.90;;;;;;4905039;28;44839;-67
2022/07/29 11:09:31;;;;;;;;;;;30.10;33.60;;;;;;4916641;28;45203;-64
2022/07/29 11:11:56;;;;;;;;;;;30.10;33.50;;;;;;4915881;28;45510;-66
2022/07/29 11:14:41;;;;;;;;;;;30.20;33.50;;;;;;4919851;28;45610;-64
2022/07/29 11:17:07;;;;;;;;;;;30.20;33.50;;;;;;4921477;28;45245;-64
2022/07/29 11:19:33;;;;;;;;;;;30.20;33.20;;;;;;4918910;28;45285;-64
2022/07/29 11:21:58;;;;;;;;;;;30.20;33.30;;;;;;4917710;28;44964;-64
2022/07/29 11:24:27;;;;;;;;;;;30.20;33.10;;;;;;4916987;28;45729;-68
2022/07/29 11:27:11;;;;;;;;;;;30.20;33.20;;;;;;4916411;28;45255;-63
2022/07/29 11:29:47;;;;;;;;;;;30.20;33.20;;;;;;4912226;28;46090;-71
2022/07/29 11:32:18;;;;;;;;;;;30.20;33.20;;;;;;4901133;28;45266;-66
2022/07/29 11:34:43;;;;;;;;;;;30.20;33.40;;;;;;4915972;28;47082;-64
2022/07/29 11:37:09;;;;;;;;;;;30.20;33.30;;;;;;4913202;28;45357;-66
2022/07/29 11:39:38;;;;;;;;;;;30.30;33.40;;;;;;4914009;28;45295;-64
2022/07/29 11:42:16;;;;;;;;;;;30.30;33.30;;;;;;4914439;28;48367;-68
2022/07/29 11:44:56;;;;;;;;;;;30.30;33.50;;;;;;4915757;28;45892;-65
2022/07/29 11:47:21;;;;;;;;;;;30.30;33.50;;;;;;4917294;28;45402;-67
2022/07/29 11:49:47;;;;;;;;;;;30.30;33.50;;;;;;4915289;28;45598;-64
2022/07/29 11:52:12;;;;;;;;;;;30.40;33.70;;;;;;4899864;28;45370;-65
2022/07/29 11:54:39;;;;;;;;;;;30.40;33.70;;;;;;4914424;28;47206;-64
2022/07/29 11:57:06;;;;;;;;;;;30.40;33.50;;;;;;4903444;28;45309;-65
2022/07/29 11:59:31;;;;;;;;;;;30.40;33.50;;;;;;4916946;28;45255;-64
2022/07/29 12:01:57;;;;;;;;;;;30.40;33.40;;;;;;4899014;28;45863;-66
2022/07/29 12:04:23;;;;;;;;;;;30.40;33.40;;;;;;4922527;28;45047;-63
2022/07/29 12:06:50;;;;;;;;;;;30.40;33.30;;;;;;4920340;28;45497;-64
2022/07/29 12:09:15;;;;;;;;;;;30.40;33.20;;;;;;4919624;28;45691;-65
2022/07/29 12:11:41;;;;;;;;;;;30.40;33.20;;;;;;4903499;28;45274;-64
2022/07/29 12:14:06;;;;;;;;;;;30.40;33.30;;;;;;4902661;28;47114;-65
2022/07/29 12:16:35;;;;;;;;;;;30.50;33.40;;;;;;4902113;28;45580;-63
2022/07/29 12:19:02;;;;;;;;;;;30.50;33.30;;;;;;4913711;28;45582;-66
2022/07/29 12:21:28;;;;;;;;;;;30.50;33.50;;;;;;4916681;28;45580;-66
2022/07/29 12:23:54;;;;;;;;;;;30.50;33.30;;;;;;4899707;28;46051;-65
2022/07/29 12:26:20;;;;;;;;;;;30.50;33.00;;;;;;4911846;28;45221;-64
2022/07/29 12:28:45;;;;;;;;;;;30.50;32.80;;;;;;4917881;28;45215;-68
2022/07/29 12:31:14;;;;;;;;;;;30.60;32.70;;;;;;4908228;28;45651;-65
2022/07/29 12:33:39;;;;;;;;;;;30.60;32.50;;;;;;4890437;28;46106;-67
2022/07/29 12:36:05;;;;;;;;;;;30.60;32.60;;;;;;4896660;28;45449;-65
2022/07/29 12:38:30;;;;;;;;;;;30.60;32.70;;;;;;4896823;28;44820;-64
2022/07/29 12:40:56;;;;;;;;;;;30.60;33.10;;;;;;4894499;28;45666;-64
2022/07/29 12:43:22;;;;;;;;;;;30.60;32.90;;;;;;4896319;28;44870;-64
2022/07/29 12:45:54;;;;;;;;;;;30.60;32.80;;;;;;4908042;28;44992;-62
2022/07/29 12:48:32;;;;;;;;;;;30.70;32.80;;;;;;4910488;28;45419;-64
2022/07/29 12:50:59;;;;;;;;;;;30.70;32.80;;;;;;4911035;28;45309;-63
2022/07/29 12:53:25;;;;;;;;;;;30.70;32.80;;;;;;4883474;28;45658;-62
2022/07/29 12:55:51;;;;;;;;;;;30.70;32.60;;;;;;4914461;28;45477;-65
2022/07/29 12:58:27;;;;;;;;;;;30.80;32.50;;;;;;4914404;28;44700;-64
2022/07/29 13:01:02;;;;;;;;;;;30.80;32.50;;;;;;4910776;28;45316;-62
2022/07/29 13:03:29;;;;;;;;;;;30.80;32.60;;;;;;4913686;28;46215;-61
2022/07/29 13:05:54;;;;;;;;;;;30.80;32.50;;;;;;4903016;28;45275;-62
2022/07/29 13:08:19;;;;;;;;;;;30.80;32.50;;;;;;4914111;28;44714;-63
2022/07/29 13:10:45;;;;;;;;;;;30.90;32.00;;;;;;4910980;28;45541;-63
2022/07/29 13:13:11;;;;;;;;;;;30.90;32.10;;;;;;4917697;28;45206;-62
2022/07/29 13:15:38;;;;;;;;;;;30.90;32.30;;;;;;4910427;28;45285;-62
2022/07/29 13:18:04;;;;;;;;;;;30.90;32.30;;;;;;4911845;28;45245;-64
2022/07/29 13:20:29;;;;;;;;;;;30.90;32.30;;;;;;4911209;28;45495;-60
2022/07/29 13:22:56;;;;;;;;;;;30.90;32.30;;;;;;4913295;28;46097;-62
2022/07/29 13:25:25;;;;;;;;;;;31.00;32.40;;;;;;4911840;28;46869;-60
2022/07/29 13:27:50;;;;;;;;;;;31.00;32.10;;;;;;4916779;28;44971;-60
2022/07/29 13:30:16;;;;;;;;;;;30.90;31.70;;;;;;4912961;28;44895;-64
2022/07/29 13:32:41;;;;;;;;;;;31.00;31.70;;;;;;4913354;28;46136;-67
2022/07/29 13:35:07;;;;;;;;;;;31.00;31.80;;;;;;4914125;28;45426;-64
2022/07/29 13:37:34;;;;;;;;;;;31.00;32.20;;;;;;4914578;28;45599;-70
2022/07/29 13:40:02;;;;;;;;;;;31.00;31.70;;;;;;4916588;28;45383;-58
2022/07/29 13:42:28;;;;;;;;;;;31.00;31.60;;;;;;4918069;28;45350;-63
2022/07/29 13:44:53;;;;;;;;;;;31.00;31.80;;;;;;4916853;28;45577;-65
2022/07/29 13:47:19;;;;;;;;;;;31.00;32.00;;;;;;4912110;28;44733;-62
2022/07/29 13:49:45;;;;;;;;;;;31.00;32.00;;;;;;4914481;28;44846;-61
2022/07/29 13:52:10;;;;;;;;;;;31.00;31.80;;;;;;4912234;28;45727;-64
2022/07/29 13:54:37;;;;;;;;;;;31.00;31.70;;;;;;4917378;28;45393;-62
2022/07/29 13:57:03;;;;;;;;;;;31.00;32.20;;;;;;4915846;28;44694;-61
2022/07/29 13:59:28;;;;;;;;;;;31.00;31.90;;;;;;4916420;28;45214;-63
2022/07/29 14:01:54;;;;;;;;;;;31.00;32.20;;;;;;4911198;28;46283;-61
2022/07/29 14:04:19;;;;;;;;;;;31.00;32.70;;;;;;4916766;28;45063;-64
2022/07/29 14:06:45;;;;;;;;;;;30.90;33.00;;;;;;4913883;28;45600;-67
2022/07/29 14:09:10;;;;;;;;;;;30.90;33.00;;;;;;4915259;28;45390;-62
2022/07/29 14:11:38;;;;;;;;;;;30.90;33.00;;;;;;4918320;28;45334;-61
2022/07/29 14:14:03;;;;;;;;;;;30.90;32.90;;;;;;4916033;28;46075;-66
2022/07/29 14:16:29;;;;;;;;;;;30.90;32.80;;;;;;4916226;28;45243;-62
2022/07/29 14:18:54;;;;;;;;;;;30.80;32.70;;;;;;4916694;28;45366;-66
2022/07/29 14:21:20;;;;;;;;;;;30.80;32.80;;;;;;4915477;28;46490;-65
2022/07/29 14:23:45;;;;;;;;;;;30.80;32.80;;;;;;4914516;28;45205;-63
2022/07/29 14:26:11;;;;;;;;;;;30.80;33.00;;;;;;4917681;28;45349;-64
2022/07/29 14:28:36;;;;;;;;;;;30.70;32.90;;;;;;4915069;28;45309;-63
2022/07/29 14:31:02;;;;;;;;;;;30.70;32.90;;;;;;4910324;28;45879;-63
2022/07/29 14:33:27;;;;;;;;;;;30.70;32.90;;;;;;4911802;28;44845;-60
2022/07/29 14:35:53;;;;;;;;;;;30.70;33.00;;;;;;4915819;28;45139;-63
2022/07/29 14:38:18;;;;;;;;;;;30.70;33.60;;;;;;4916629;28;45818;-61
2022/07/29 14:40:44;;;;;;;;;;;30.70;34.00;;;;;;4915884;28;46195;-64
2022/07/29 14:43:09;;;;;;;;;;;30.60;34.30;;;;;;4916587;28;45333;-63
2022/07/29 14:45:35;;;;;;;;;;;30.60;34.20;;;;;;4917202;28;44881;-62
2022/07/29 14:48:00;;;;;;;;;;;30.60;35.30;;;;;;4914030;28;45514;-66
2022/07/29 14:50:26;;;;;;;;;;;30.60;35.20;;;;;;4912709;28;45255;-61
2022/07/29 14:52:52;;;;;;;;;;;30.60;35.80;;;;;;4908627;28;45013;-61
2022/07/29 14:55:17;;;;;;;;;;;30.50;35.80;;;;;;4911651;28;44982;-60
2022/07/29 14:57:43;;;;;;;;;;;30.50;35.80;;;;;;4912509;28;45928;-61
2022/07/29 15:00:09;;;;;;;;;;;30.50;36.40;;;;;;4917706;28;46226;-64
2022/07/29 15:02:34;;;;;;;;;;;30.50;37.20;;;;;;4913755;28;45498;-65
2022/07/29 15:05:00;;;;;;;;;;;30.40;38.10;;;;;;4915483;28;45389;-61
2022/07/29 15:07:26;;;;;;;;;;;30.40;40.20;;;;;;4913589;28;45774;-62
2022/07/29 15:09:52;;;;;;;;;;;30.30;41.90;;;;;;4898639;28;45963;-65
2022/07/29 15:12:17;;;;;;;;;;;30.20;42.70;;;;;;4915749;28;44942;-61
2022/07/29 15:14:43;;;;;;;;;;;30.10;42.90;;;;;;4914376;28;45123;-66
2022/07/29 15:17:08;;;;;;;;;;;30.00;43.10;;;;;;4913988;28;45210;-66
2022/07/29 15:19:34;;;;;;;;;;;30.00;44.10;;;;;;4915481;28;45893;-64
2022/07/29 15:21:59;;;;;;;;;;;30.00;44.30;;;;;;4916255;28;45212;-66
2022/07/29 15:24:25;;;;;;;;;;;30.00;44.80;;;;;;4911938;28;45239;-71
2022/07/29 15:26:50;;;;;;;;;;;30.00;45.30;;;;;;4905469;28;45594;-64
2022/07/29 15:29:16;;;;;;;;;;;29.90;45.50;;;;;;4912271;28;45446;-64
2022/07/29 15:31:42;;;;;;;;;;;29.80;45.60;;;;;;4914369;28;45973;-65
2022/07/29 15:34:07;;;;;;;;;;;29.80;46.10;;;;;;4915434;28;44897;-66
2022/07/29 15:36:33;;;;;;;;;;;29.70;46.30;;;;;;4899191;28;45164;-62
2022/07/29 15:38:58;;;;;;;;;;;29.60;46.90;;;;;;4913851;28;47055;-61
2022/07/29 15:41:24;;;;;;;;;;;29.50;47.50;;;;;;4913546;28;45627;-66
2022/07/29 15:43:50;;;;;;;;;;;29.40;47.90;;;;;;4899688;28;45505;-69
2022/07/29 15:49:01;;;;;;;;;;;29.30;48.90;;;;;;4916579;28;46318;-63
2022/07/29 15:51:26;;;;;;;;;;;29.30;48.20;;;;;;4914525;28;45170;-64
2022/07/29 15:53:52;;;;;;;;;;;29.20;48.30;;;;;;4913772;28;45399;-68
2022/07/29 15:56:17;;;;;;;;;;;29.10;48.40;;;;;;4912481;28;46241;-65
2022/07/29 15:58:43;;;;;;;;;;;29.10;48.30;;;;;;4898118;28;45386;-62
2022/07/29 16:01:08;;;;;;;;;;;29.10;48.30;;;;;;4911600;28;45741;-67
2022/07/29 16:03:34;;;;;;;;;;;29.10;48.50;;;;;;4882307;28;45967;-63
2022/07/29 16:06:00;;;;;;;7.63;1.70;;;29.10;48.10;;;;;;4911516;28;45072;-64
2022/07/29 16:08:25;;;;;;;4.28;1.80;;;29.10;45.90;;;;;;4913083;28;46163;-63
2022/07/29 16:10:51;;;;;;;8.27;2.10;;;29.10;46.00;;;;;;4910592;28;45829;-66
2022/07/29 16:13:16;;;;;;;5.45;2.00;;;29.10;46.40;;;;;;4908295;28;44752;-64
2022/07/29 16:15:42;;;;;;;4.20;2.08;;;29.00;46.10;;;;;;4910655;28;45601;-61
2022/07/29 16:18:08;;;;;;;5.18;2.28;;;29.00;46.10;;;;;;4908872;28;44920;-64
2022/07/29 16:20:35;;;;;;;5.85;2.00;;;29.00;46.30;;;;;;4886973;28;45413;-63
2022/07/29 16:23:00;;;;;;;3.13;1.60;;;29.00;46.60;;;;;;4910811;28;45043;-64
2022/07/29 16:25:26;;;;;;;4.43;2.40;;;29.00;46.50;;;;;;4912615;28;45194;-62
2022/07/29 16:27:51;;;;;;;4.90;2.08;;;29.00;46.60;;;;;;4912234;28;47739;-65
2022/07/29 16:30:17;;;;;;;9.48;2.30;;;28.90;46.70;;;;;;4912020;28;45599;-60
2022/07/29 16:32:43;;;;;;;6.40;2.70;;;28.90;46.70;;;;;;4916594;28;45008;-65
2022/07/29 16:35:08;;;;;;;4.85;2.28;;;28.90;46.60;;;;;;4912837;28;45579;-65
2022/07/29 16:37:35;;;;;;;3.75;1.90;;;28.90;46.60;;;;;;4911965;28;45353;-66
2022/07/29 16:40:03;;;;;;;2.67;1.70;;;28.90;46.70;;;;;;4898606;28;45395;-64
2022/07/29 16:42:28;;;;;;;5.85;2.20;;;28.90;46.60;;;;;;4895431;28;45376;-65
2022/07/29 16:44:54;;;;;;;3.92;2.10;;;28.90;46.80;;;;;;4911207;28;45459;-65
2022/07/29 16:47:19;;;;;;;4.15;2.13;;;28.90;46.60;;;;;;4910097;28;46137;-66
2022/07/29 16:49:45;;;;;;;4.22;1.75;;;28.90;46.90;;;;;;4905219;28;45469;-66
2022/07/29 16:52:10;;;;;;;4.88;1.80;;;28.90;46.70;;;;;;4905777;28;45586;-66
2022/07/29 16:54:36;;;;;;;3.60;1.92;;;28.90;46.80;;;;;;4911763;28;45286;-62
2022/07/29 16:57:02;;;;;;;5.28;1.80;;;28.90;46.70;;;;;;4907877;28;45776;-64
2022/07/29 16:59:28;;;;;;;5.05;1.90;;;28.90;46.70;;;;;;4913870;28;45613;-63
2022/07/29 17:01:54;;;;;;;4.53;2.00;;;28.90;46.80;;;;;;4914150;28;45933;-63
2022/07/29 17:04:19;;;;;;;2.70;1.85;;;28.90;46.80;;;;;;4916233;28;45419;-61
2022/07/29 17:06:45;;;;;;;3.85;1.65;;;28.90;46.90;;;;;;4914131;28;46777;-65
2022/07/29 17:09:15;;;;;;;4.32;1.70;;;28.90;46.90;;;;;;4906418;28;45203;-62
2022/07/29 17:11:41;;;;;;;2.83;1.77;;;28.80;47.20;;;;;;4918721;28;45304;-63
2022/07/29 17:14:07;;;;;;;5.00;2.05;;;28.70;47.40;;;;;;4916789;28;47175;-58